createdAt,value
2018-01-21T00:00:06.429Z,23.42
2018-01-21T00:01:08.921Z,23.52
2018-01-21T00:02:11.378Z,23.55
2018-01-21T00:03:13.838Z,25.70
2018-01-21T00:04:16.312Z,25.33
2018-01-21T00:05:18.765Z,25.23
2018-01-21T00:06:21.256Z,24.98
2018-01-21T00:07:23.732Z,23.73
2018-01-21T00:08:26.190Z,23.95
2018-01-21T00:09:28.663Z,25.42
2018-01-21T00:10:31.114Z,24.60
2018-01-21T00:11:33.608Z,23.65
2018-01-21T00:12:36.071Z,26.10
2018-01-21T00:13:38.573Z,25.73
2018-01-21T00:14:41.040Z,25.65
2018-01-21T00:15:43.516Z,26.37
2018-01-21T00:16:45.986Z,25.45
2018-01-21T00:17:48.456Z,24.95
2018-01-21T00:18:50.928Z,24.00
2018-01-21T00:19:53.400Z,25.35
2018-01-21T00:20:55.878Z,26.10
2018-01-21T00:21:58.371Z,26.58
2018-01-21T00:23:00.868Z,26.30
2018-01-21T00:24:03.325Z,24.70
2018-01-21T00:25:05.787Z,25.95
2018-01-21T00:26:08.262Z,25.62
2018-01-21T00:27:10.734Z,25.48
2018-01-21T00:28:13.253Z,25.15
2018-01-21T00:29:15.703Z,25.35
2018-01-21T00:30:18.199Z,27.20
2018-01-21T00:31:20.658Z,26.40
2018-01-21T00:32:23.133Z,27.10
2018-01-21T00:33:25.609Z,27.45
2018-01-21T00:34:28.076Z,25.75
2018-01-21T00:35:30.531Z,26.65
2018-01-21T00:36:33.007Z,26.45
2018-01-21T00:37:35.500Z,28.17
2018-01-21T00:38:37.972Z,26.80
2018-01-21T00:39:40.459Z,26.02
2018-01-21T00:40:42.921Z,26.27
2018-01-21T00:41:45.387Z,25.40
2018-01-21T00:42:47.888Z,27.73
2018-01-21T00:43:50.365Z,29.75
2018-01-21T00:44:52.825Z,26.90
2018-01-21T00:45:55.287Z,27.73
2018-01-21T00:46:57.768Z,26.75
2018-01-21T00:48:00.264Z,27.70
2018-01-21T00:49:02.759Z,27.45
2018-01-21T00:50:05.229Z,28.15
2018-01-21T00:51:07.693Z,27.50
2018-01-21T00:52:10.160Z,29.25
2018-01-21T00:53:12.653Z,29.52
2018-01-21T00:54:15.105Z,30.85
2018-01-21T00:55:17.564Z,28.80
2018-01-21T00:56:20.034Z,28.33
2018-01-21T00:57:22.507Z,27.65
2018-01-21T00:58:24.998Z,30.92
2018-01-21T00:59:27.461Z,29.48
2018-01-21T01:00:29.947Z,29.10
2018-01-21T01:01:32.428Z,28.98
2018-01-21T01:02:34.908Z,30.50
2018-01-21T01:03:37.390Z,29.75
2018-01-21T01:04:39.950Z,27.83
2018-01-21T01:05:42.421Z,28.30
2018-01-21T01:06:44.873Z,31.33
2018-01-21T01:07:47.329Z,31.42
2018-01-21T01:08:49.816Z,30.30
2018-01-21T01:09:52.287Z,30.75
2018-01-21T01:10:54.741Z,30.00
2018-01-21T01:11:57.193Z,30.30
2018-01-21T01:12:59.645Z,28.92
2018-01-21T01:14:02.133Z,29.50
2018-01-21T01:15:04.610Z,31.10
2018-01-21T01:16:07.066Z,32.00
2018-01-21T01:17:09.540Z,32.20
2018-01-21T01:18:12.160Z,30.65
2018-01-21T01:19:14.629Z,33.95
2018-01-21T01:20:17.109Z,31.30
2018-01-21T01:21:19.585Z,31.62
2018-01-21T01:22:22.038Z,32.90
2018-01-21T01:23:24.508Z,31.05
2018-01-21T01:24:26.981Z,30.83
2018-01-21T01:25:29.448Z,32.10
2018-01-21T01:26:31.898Z,34.45
2018-01-21T01:27:34.378Z,32.78
2018-01-21T01:28:36.834Z,32.42
2018-01-21T01:29:39.310Z,31.20
2018-01-21T01:30:41.775Z,32.20
2018-01-21T01:31:44.245Z,30.67
2018-01-21T01:32:46.720Z,31.40
2018-01-21T01:33:49.174Z,30.75
2018-01-21T01:34:51.649Z,30.37
2018-01-21T01:35:54.105Z,27.98
2018-01-21T01:36:56.560Z,27.77
2018-01-21T01:37:59.014Z,29.30
2018-01-21T01:39:01.480Z,28.45
2018-01-21T01:40:03.988Z,27.85
2018-01-21T01:41:06.455Z,27.10
2018-01-21T01:42:08.920Z,28.52
2018-01-21T01:43:11.405Z,27.00
2018-01-21T01:44:13.879Z,26.52
2018-01-21T01:45:16.357Z,25.90
2018-01-21T01:46:18.818Z,25.88
2018-01-21T01:47:21.274Z,26.30
2018-01-21T01:48:23.741Z,24.63
2018-01-21T01:49:26.368Z,26.85
2018-01-21T01:50:28.837Z,27.87
2018-01-21T01:51:31.316Z,25.98
2018-01-21T01:52:33.800Z,27.13
2018-01-21T01:53:36.298Z,27.85
2018-01-21T01:54:38.784Z,27.10
2018-01-21T01:55:41.270Z,28.65
2018-01-21T01:56:43.730Z,30.15
2018-01-21T01:57:46.220Z,27.27
2018-01-21T01:58:48.678Z,27.00
2018-01-21T01:59:51.208Z,25.98
2018-01-21T02:00:53.769Z,25.48
2018-01-21T02:01:56.221Z,24.70
2018-01-21T02:02:58.687Z,22.30
2018-01-21T02:04:01.249Z,23.20
2018-01-21T02:05:03.733Z,22.27
2018-01-21T02:06:06.210Z,22.67
2018-01-21T02:07:08.683Z,23.02
2018-01-21T02:08:11.272Z,23.23
2018-01-21T02:09:13.742Z,22.42
2018-01-21T02:10:16.208Z,23.40
2018-01-21T02:11:18.683Z,24.52
2018-01-21T02:12:21.147Z,22.60
2018-01-21T02:13:23.601Z,21.73
2018-01-21T02:14:26.205Z,22.02
2018-01-21T02:15:28.711Z,21.92
2018-01-21T02:16:31.177Z,25.73
2018-01-21T02:17:33.661Z,24.50
2018-01-21T02:18:36.117Z,23.35
2018-01-21T02:19:38.583Z,24.12
2018-01-21T02:20:41.033Z,22.80
2018-01-21T02:21:43.515Z,24.50
2018-01-21T02:22:45.979Z,25.27
2018-01-21T02:23:48.451Z,26.37
2018-01-21T02:24:50.941Z,26.15
2018-01-21T02:25:53.402Z,26.80
2018-01-21T02:26:55.908Z,26.92
2018-01-21T02:27:58.353Z,28.65
2018-01-21T02:29:00.800Z,28.00
2018-01-21T02:30:03.276Z,26.00
2018-01-21T02:31:05.744Z,26.83
2018-01-21T02:32:08.256Z,27.50
2018-01-21T02:33:10.720Z,26.35
2018-01-21T02:34:13.181Z,26.35
2018-01-21T02:35:15.630Z,24.73
2018-01-21T02:36:18.089Z,26.33
2018-01-21T02:37:20.565Z,24.17
2018-01-21T02:38:23.022Z,26.08
2018-01-21T02:39:25.550Z,25.23
2018-01-21T02:40:28.006Z,26.65
2018-01-21T02:41:30.474Z,27.62
2018-01-21T02:42:32.975Z,25.17
2018-01-21T02:43:35.459Z,24.60
2018-01-21T02:44:37.933Z,23.90
2018-01-21T02:45:40.390Z,25.00
2018-01-21T02:46:42.854Z,25.25
2018-01-21T02:47:45.331Z,24.48
2018-01-21T02:48:47.786Z,24.63
2018-01-21T02:49:50.249Z,25.45
2018-01-21T02:50:52.732Z,23.40
2018-01-21T02:51:55.190Z,23.45
2018-01-21T02:52:57.705Z,25.17
2018-01-21T02:54:00.162Z,24.27
2018-01-21T02:55:02.624Z,25.00
2018-01-21T02:56:05.096Z,25.05
2018-01-21T02:57:07.562Z,24.80
2018-01-21T02:58:10.039Z,27.42
2018-01-21T02:59:12.515Z,26.30
2018-01-21T03:00:14.994Z,25.67
2018-01-21T03:01:17.450Z,26.75
2018-01-21T03:02:19.909Z,25.27
2018-01-21T03:03:22.399Z,22.20
2018-01-21T03:04:24.854Z,22.67
2018-01-21T03:05:27.305Z,21.48
2018-01-21T03:06:29.773Z,22.05
2018-01-21T03:07:32.240Z,23.67
2018-01-21T03:08:34.728Z,21.95
2018-01-21T03:09:37.204Z,21.42
2018-01-21T03:10:39.671Z,19.55
2018-01-21T03:11:42.140Z,21.25
2018-01-21T03:12:44.596Z,20.77
2018-01-21T03:13:47.069Z,21.75
2018-01-21T03:14:49.521Z,21.85
2018-01-21T03:15:51.996Z,21.48
2018-01-21T03:16:54.458Z,23.38
2018-01-21T03:17:56.909Z,24.25
2018-01-21T03:18:59.395Z,23.48
2018-01-21T03:20:01.860Z,24.20
2018-01-21T03:21:04.328Z,26.37
2018-01-21T03:22:06.792Z,24.80
2018-01-21T03:23:09.268Z,25.02
2018-01-21T03:24:11.760Z,24.05
2018-01-21T03:25:14.223Z,23.92
2018-01-21T03:26:16.691Z,23.02
2018-01-21T03:27:19.156Z,23.73
2018-01-21T03:28:21.622Z,25.70
2018-01-21T03:29:24.121Z,26.48
2018-01-21T03:30:26.593Z,24.63
2018-01-21T03:31:29.070Z,25.12
2018-01-21T03:32:31.544Z,27.45
2018-01-21T03:33:33.997Z,26.15
2018-01-21T03:34:36.473Z,23.52
2018-01-21T03:35:38.925Z,25.62
2018-01-21T03:36:41.382Z,23.33
2018-01-21T03:37:43.840Z,25.62
2018-01-21T03:38:46.374Z,24.42
2018-01-21T03:39:48.854Z,23.90
2018-01-21T03:40:51.314Z,23.10
2018-01-21T03:41:53.765Z,24.58
2018-01-21T03:42:56.225Z,23.12
2018-01-21T03:43:58.695Z,22.70
2018-01-21T03:45:01.184Z,22.65
2018-01-21T03:46:03.645Z,21.83
2018-01-21T03:47:06.122Z,22.67
2018-01-21T03:48:08.588Z,21.70
2018-01-21T03:49:11.117Z,21.95
2018-01-21T03:50:13.611Z,20.95
2018-01-21T03:51:16.070Z,21.48
2018-01-21T03:52:18.530Z,21.42
2018-01-21T03:53:20.981Z,22.08
2018-01-21T03:54:23.437Z,21.00
2018-01-21T03:55:25.921Z,21.77
2018-01-21T03:56:28.389Z,20.50
2018-01-21T03:57:30.854Z,22.20
2018-01-21T03:58:33.348Z,20.83
2018-01-21T03:59:35.819Z,19.92
2018-01-21T04:00:38.354Z,19.85
2018-01-21T04:01:40.868Z,19.27
2018-01-21T04:02:43.339Z,20.50
2018-01-21T04:03:45.816Z,17.80
2018-01-21T04:04:48.296Z,18.58
2018-01-21T04:05:50.771Z,19.62
2018-01-21T04:06:53.221Z,18.85
2018-01-21T04:07:55.696Z,18.90
2018-01-21T04:08:58.174Z,18.80
2018-01-21T04:10:00.644Z,19.77
2018-01-21T04:11:03.142Z,17.15
2018-01-21T04:12:05.603Z,17.85
2018-01-21T04:13:08.071Z,16.73
2018-01-21T04:14:10.595Z,16.85
2018-01-21T04:15:13.056Z,16.52
2018-01-21T04:16:15.538Z,16.92
2018-01-21T04:17:18.021Z,16.73
2018-01-21T04:18:20.487Z,17.85
2018-01-21T04:19:22.965Z,18.23
2018-01-21T04:20:25.434Z,18.05
2018-01-21T04:21:27.927Z,17.25
2018-01-21T04:22:30.377Z,17.87
2018-01-21T04:23:32.829Z,17.98
2018-01-21T04:24:35.359Z,18.65
2018-01-21T04:25:37.828Z,17.08
2018-01-21T04:26:40.323Z,17.65
2018-01-21T04:27:42.778Z,17.33
2018-01-21T04:28:45.252Z,18.05
2018-01-21T04:29:47.732Z,17.73
2018-01-21T04:30:50.192Z,16.85
2018-01-21T04:31:52.678Z,17.65
2018-01-21T04:32:55.144Z,18.58
2018-01-21T04:33:57.604Z,18.75
2018-01-21T04:35:00.072Z,17.85
2018-01-21T04:36:02.525Z,18.00
2018-01-21T04:37:04.998Z,20.05
2018-01-21T04:38:07.453Z,17.98
2018-01-21T04:39:09.924Z,17.55
2018-01-21T04:40:12.390Z,18.33
2018-01-21T04:41:14.938Z,17.83
2018-01-21T04:42:17.424Z,18.70
2018-01-21T04:43:19.898Z,17.12
2018-01-21T04:44:22.390Z,17.30
2018-01-21T04:45:24.857Z,17.75
2018-01-21T04:46:27.309Z,17.65
2018-01-21T04:47:29.786Z,18.80
2018-01-21T04:48:32.241Z,17.67
2018-01-21T04:49:34.802Z,17.65
2018-01-21T04:50:37.272Z,18.48
2018-01-21T04:51:39.741Z,17.98
2018-01-21T04:52:42.230Z,18.70
2018-01-21T04:53:44.701Z,18.40
2018-01-21T04:54:47.153Z,18.92
2018-01-21T04:55:49.652Z,20.42
2018-01-21T04:56:52.123Z,20.17
2018-01-21T04:57:54.639Z,20.80
2018-01-21T04:58:57.120Z,19.92
2018-01-21T04:59:59.590Z,20.65
2018-01-21T05:01:02.064Z,20.42
2018-01-21T05:02:04.526Z,20.48
2018-01-21T05:03:07.023Z,21.35
2018-01-21T05:04:09.506Z,22.67
2018-01-21T05:05:11.987Z,21.85
2018-01-21T05:06:14.460Z,22.05
2018-01-21T05:07:16.927Z,22.65
2018-01-21T05:08:19.420Z,20.98
2018-01-21T05:09:21.874Z,22.45
2018-01-21T05:10:24.329Z,21.50
2018-01-21T05:11:26.792Z,21.98
2018-01-21T05:12:29.249Z,19.52
2018-01-21T05:13:31.725Z,19.60
2018-01-21T05:14:34.194Z,20.52
2018-01-21T05:15:36.653Z,20.33
2018-01-21T05:16:39.118Z,20.73
2018-01-21T05:17:41.573Z,19.90
2018-01-21T05:18:44.072Z,21.62
2018-01-21T05:19:46.526Z,23.50
2018-01-21T05:20:48.999Z,22.65
2018-01-21T05:21:51.486Z,23.75
2018-01-21T05:22:53.967Z,24.25
2018-01-21T05:23:56.445Z,23.80
2018-01-21T05:24:58.928Z,25.17
2018-01-21T05:26:01.403Z,23.12
2018-01-21T05:27:03.866Z,25.35
2018-01-21T05:28:06.322Z,22.42
2018-01-21T05:29:08.818Z,23.33
2018-01-21T05:30:11.279Z,21.30
2018-01-21T05:31:13.743Z,22.55
2018-01-21T05:32:16.225Z,21.42
2018-01-21T05:33:18.713Z,21.80
2018-01-21T05:34:21.197Z,20.17
2018-01-21T05:35:23.655Z,23.27
2018-01-21T05:36:26.117Z,22.85
2018-01-21T05:37:28.585Z,24.02
2018-01-21T05:38:31.169Z,21.52
2018-01-21T05:39:33.669Z,20.23
2018-01-21T05:40:36.155Z,20.20
2018-01-21T05:41:38.622Z,20.48
2018-01-21T05:42:41.081Z,20.65
2018-01-21T05:43:43.565Z,22.25
2018-01-21T05:44:46.045Z,22.90
2018-01-21T05:45:48.505Z,21.00
2018-01-21T05:46:50.992Z,21.52
2018-01-21T05:47:53.471Z,21.83
2018-01-21T05:48:55.944Z,20.67
2018-01-21T05:49:58.430Z,23.10
2018-01-21T05:51:00.907Z,22.20
2018-01-21T05:52:03.374Z,22.10
2018-01-21T05:53:05.848Z,25.67
2018-01-21T05:54:08.349Z,24.10
2018-01-21T05:55:10.867Z,24.73
2018-01-21T05:56:13.366Z,22.70
2018-01-21T05:57:15.834Z,23.80
2018-01-21T05:58:18.355Z,24.90
2018-01-21T05:59:20.817Z,22.17
2018-01-21T06:00:23.307Z,26.50
2018-01-21T06:01:25.775Z,24.50
2018-01-21T06:02:28.230Z,25.62
2018-01-21T06:03:30.693Z,25.90
2018-01-21T06:04:33.172Z,24.90
2018-01-21T06:05:35.665Z,23.25
2018-01-21T06:06:38.130Z,23.05
2018-01-21T06:07:40.666Z,23.52
2018-01-21T06:08:43.122Z,25.12
2018-01-21T06:09:45.590Z,26.60
2018-01-21T06:10:48.084Z,25.92
2018-01-21T06:11:50.559Z,26.40
2018-01-21T06:12:53.032Z,26.45
2018-01-21T06:13:55.494Z,25.77
2018-01-21T06:14:57.975Z,25.25
2018-01-21T06:16:00.496Z,24.75
2018-01-21T06:17:02.964Z,25.12
2018-01-21T06:18:05.426Z,24.67
2018-01-21T06:19:07.892Z,24.45
2018-01-21T06:20:10.364Z,24.50
2018-01-21T06:21:12.849Z,23.83
2018-01-21T06:22:15.305Z,23.90
2018-01-21T06:23:17.782Z,22.27
2018-01-21T06:24:20.252Z,24.17
2018-01-21T06:25:22.710Z,23.67
2018-01-21T06:26:25.195Z,24.08
2018-01-21T06:27:27.687Z,23.83
2018-01-21T06:28:30.168Z,23.87
2018-01-21T06:29:32.643Z,24.60
2018-01-21T06:30:35.111Z,24.12
2018-01-21T06:31:37.599Z,24.60
2018-01-21T06:32:40.054Z,24.60
2018-01-21T06:33:42.531Z,24.80
2018-01-21T06:34:44.998Z,24.35
2018-01-21T06:35:47.639Z,22.50
2018-01-21T06:36:50.119Z,23.33
2018-01-21T06:37:52.600Z,22.00
2018-01-21T06:38:55.159Z,23.35
2018-01-21T06:39:57.627Z,22.45
2018-01-21T06:41:00.095Z,21.52
2018-01-21T06:42:02.596Z,22.05
2018-01-21T06:43:05.071Z,21.95
2018-01-21T06:44:07.530Z,22.05
2018-01-21T06:45:10.012Z,20.35
2018-01-21T06:46:12.469Z,21.87
2018-01-21T06:47:14.945Z,22.62
2018-01-21T06:48:17.424Z,23.08
2018-01-21T06:49:19.906Z,23.08
2018-01-21T06:50:22.379Z,21.62
2018-01-21T06:51:24.834Z,21.00
2018-01-21T06:52:27.310Z,22.17
2018-01-21T06:53:29.787Z,21.52
2018-01-21T06:54:32.268Z,21.23
2018-01-21T06:55:34.727Z,21.33
2018-01-21T06:56:37.212Z,22.73
2018-01-21T06:57:39.712Z,21.87
2018-01-21T06:58:42.181Z,22.90
2018-01-21T06:59:44.641Z,23.98
2018-01-21T07:00:47.100Z,22.45
2018-01-21T07:01:49.572Z,22.60
2018-01-21T07:02:52.066Z,21.40
2018-01-21T07:03:54.544Z,21.60
2018-01-21T07:04:57.005Z,22.67
2018-01-21T07:05:59.462Z,22.17
2018-01-21T07:07:01.926Z,22.80
2018-01-21T07:08:04.410Z,23.50
2018-01-21T07:09:06.865Z,21.80
2018-01-21T07:10:09.388Z,22.37
2018-01-21T07:11:11.833Z,21.98
2018-01-21T07:12:14.316Z,22.35
2018-01-21T07:13:16.813Z,21.62
2018-01-21T07:14:19.291Z,21.60
2018-01-21T07:15:21.764Z,20.73
2018-01-21T07:16:24.247Z,20.25
2018-01-21T07:17:26.706Z,22.60
2018-01-21T07:18:29.190Z,21.48
2018-01-21T07:19:31.653Z,23.48
2018-01-21T07:20:34.110Z,21.73
2018-01-21T07:21:36.588Z,22.62
2018-01-21T07:22:39.068Z,22.33
2018-01-21T07:23:41.576Z,23.17
2018-01-21T07:24:44.068Z,22.10
2018-01-21T07:25:46.550Z,23.38
2018-01-21T07:26:49.022Z,23.55
2018-01-21T07:27:51.477Z,23.38
2018-01-21T07:28:53.974Z,22.25
2018-01-21T07:29:56.456Z,21.92
2018-01-21T07:30:58.930Z,20.27
2018-01-21T07:32:01.399Z,21.50
2018-01-21T07:33:03.886Z,20.77
2018-01-21T07:34:06.369Z,22.15
2018-01-21T07:35:08.862Z,20.75
2018-01-21T07:36:11.340Z,20.83
2018-01-21T07:37:13.824Z,19.33
2018-01-21T07:38:16.301Z,18.05
2018-01-21T07:39:19.272Z,17.75
2018-01-21T07:40:21.834Z,17.70
2018-01-21T07:41:24.308Z,19.83
2018-01-21T07:42:32.755Z,20.33
2018-01-21T07:43:35.228Z,18.15
2018-01-21T07:44:37.706Z,18.75
2018-01-21T07:45:40.171Z,18.60
2018-01-21T07:46:42.625Z,17.37
2018-01-21T07:47:45.100Z,17.58
2018-01-21T07:48:47.582Z,16.83
2018-01-21T07:49:50.070Z,18.58
2018-01-21T07:50:52.550Z,17.92
2018-01-21T07:51:55.033Z,16.70
2018-01-21T07:52:57.518Z,17.70
2018-01-21T07:53:59.982Z,16.98
2018-01-21T07:55:02.484Z,17.50
2018-01-21T07:56:04.946Z,16.37
2018-01-21T07:57:07.421Z,16.37
2018-01-21T07:58:09.918Z,17.02
2018-01-21T07:59:12.375Z,16.40
2018-01-21T08:00:14.882Z,15.60
2018-01-21T08:01:17.364Z,17.10
2018-01-21T08:02:19.848Z,16.08
2018-01-21T08:03:22.320Z,16.95
2018-01-21T08:04:24.817Z,15.88
2018-01-21T08:05:27.307Z,16.15
2018-01-21T08:06:29.772Z,15.88
2018-01-21T08:07:32.252Z,15.93
2018-01-21T08:08:34.719Z,16.50
2018-01-21T08:09:37.191Z,16.90
2018-01-21T08:10:39.789Z,16.15
2018-01-21T08:11:42.267Z,14.50
2018-01-21T08:12:44.739Z,15.52
2018-01-21T08:13:47.216Z,14.80
2018-01-21T08:14:49.678Z,14.13
2018-01-21T08:15:52.173Z,14.35
2018-01-21T08:16:54.644Z,13.40
2018-01-21T08:17:57.120Z,12.77
2018-01-21T08:18:59.599Z,13.90
2018-01-21T08:20:02.056Z,15.57
2018-01-21T08:21:04.541Z,14.48
2018-01-21T08:22:07.006Z,14.50
2018-01-21T08:23:09.472Z,13.32
2018-01-21T08:24:11.934Z,13.52
2018-01-21T08:25:14.411Z,13.55
2018-01-21T08:26:16.886Z,13.27
2018-01-21T08:27:19.351Z,12.45
2018-01-21T08:28:21.834Z,12.37
2018-01-21T08:29:24.308Z,12.00
2018-01-21T08:30:26.805Z,12.25
2018-01-21T08:31:29.300Z,12.18
2018-01-21T08:32:31.780Z,11.50
2018-01-21T08:33:34.245Z,11.52
2018-01-21T08:34:42.224Z,11.50
2018-01-21T08:35:50.316Z,11.88
2018-01-21T08:36:58.349Z,11.25
2018-01-21T08:38:06.342Z,13.02
2018-01-21T08:39:14.332Z,11.80
2018-01-21T08:40:22.354Z,11.60
2018-01-21T08:41:44.529Z,10.88
2018-01-21T08:42:47.018Z,10.23
2018-01-21T08:43:49.496Z,10.15
2018-01-21T08:44:51.986Z,10.60
2018-01-21T08:45:54.465Z,11.07
2018-01-21T08:46:56.954Z,10.98
2018-01-21T08:47:59.451Z,10.30
2018-01-21T08:49:01.924Z,11.73
2018-01-21T08:50:04.411Z,10.55
2018-01-21T08:51:06.926Z,12.07
2018-01-21T08:52:09.421Z,10.82
2018-01-21T08:53:11.916Z,10.40
2018-01-21T08:54:14.381Z,9.93
2018-01-21T08:55:16.836Z,9.70
2018-01-21T08:56:19.314Z,10.45
2018-01-21T08:57:21.775Z,9.82
2018-01-21T08:58:24.287Z,10.25
2018-01-21T08:59:26.758Z,10.38
2018-01-21T09:00:29.239Z,9.88
2018-01-21T09:01:31.728Z,10.55
2018-01-21T09:02:34.207Z,10.73
2018-01-21T09:03:36.686Z,9.82
2018-01-21T09:04:39.152Z,9.45
2018-01-21T09:05:41.620Z,8.60
2018-01-21T09:06:44.095Z,10.30
2018-01-21T09:07:46.560Z,9.40
2018-01-21T09:08:49.042Z,8.77
2018-01-21T09:09:51.498Z,8.50
2018-01-21T09:10:53.968Z,9.25
2018-01-21T09:11:56.426Z,8.60
2018-01-21T09:12:58.889Z,8.73
2018-01-21T09:14:01.368Z,7.85
2018-01-21T09:15:03.854Z,8.20
2018-01-21T09:16:06.313Z,7.55
2018-01-21T09:17:08.769Z,8.35
2018-01-21T09:18:11.231Z,9.00
2018-01-21T09:19:13.776Z,9.93
2018-01-21T09:20:16.247Z,9.13
2018-01-21T09:21:18.705Z,8.98
2018-01-21T09:22:21.186Z,12.98
2018-01-21T09:23:23.684Z,9.25
2018-01-21T09:24:26.449Z,7.65
2018-01-21T09:25:28.920Z,7.95
2018-01-21T09:26:31.392Z,8.50
2018-01-21T09:27:33.868Z,8.43
2018-01-21T09:28:36.336Z,7.78
2018-01-21T09:29:38.858Z,8.15
2018-01-21T09:30:41.327Z,8.77
2018-01-21T09:31:43.806Z,7.90
2018-01-21T09:32:46.266Z,7.75
2018-01-21T09:33:48.739Z,7.60
2018-01-21T09:34:52.115Z,8.45
2018-01-21T09:35:55.600Z,8.10
2018-01-21T09:36:58.081Z,9.00
2018-01-21T09:38:00.534Z,7.80
2018-01-21T09:39:02.986Z,8.45
2018-01-21T09:40:05.466Z,8.57
2018-01-21T09:41:08.024Z,9.98
2018-01-21T09:42:10.479Z,8.18
2018-01-21T09:43:12.988Z,7.00
2018-01-21T09:44:15.455Z,7.53
2018-01-21T09:45:17.946Z,7.53
2018-01-21T09:46:20.402Z,7.50
2018-01-21T09:47:22.866Z,8.98
2018-01-21T09:48:25.337Z,9.07
2018-01-21T09:49:27.891Z,8.63
2018-01-21T09:50:30.381Z,13.55
2018-01-21T09:51:32.834Z,9.07
2018-01-21T09:52:35.307Z,8.50
2018-01-21T09:53:37.782Z,7.87
2018-01-21T09:54:40.250Z,8.35
2018-01-21T09:55:42.747Z,9.50
2018-01-21T09:56:45.219Z,8.05
2018-01-21T09:57:47.727Z,8.10
2018-01-21T09:58:50.191Z,7.00
2018-01-21T09:59:52.664Z,7.93
2018-01-21T10:00:55.161Z,7.18
2018-01-21T10:01:57.635Z,7.70
2018-01-21T10:03:00.104Z,7.60
2018-01-21T10:04:02.569Z,8.15
2018-01-21T10:05:05.030Z,7.85
2018-01-21T10:06:07.510Z,7.60
2018-01-21T10:07:09.988Z,7.05
2018-01-21T10:08:12.486Z,7.37
2018-01-21T10:09:14.946Z,6.97
2018-01-21T10:10:17.455Z,7.78
2018-01-21T10:11:19.903Z,7.35
2018-01-21T10:12:22.376Z,6.70
2018-01-21T10:13:24.842Z,6.82
2018-01-21T10:14:27.352Z,6.35
2018-01-21T10:15:29.931Z,7.47
2018-01-21T10:16:32.421Z,6.57
2018-01-21T10:17:34.892Z,6.75
2018-01-21T10:18:37.368Z,6.72
2018-01-21T10:19:39.840Z,6.55
2018-01-21T10:20:42.331Z,6.20
2018-01-21T10:21:44.821Z,8.13
2018-01-21T10:22:47.274Z,7.05
2018-01-21T10:23:49.782Z,7.30
2018-01-21T10:24:52.268Z,5.55
2018-01-21T10:25:54.730Z,5.60
2018-01-21T10:26:57.248Z,5.95
2018-01-21T10:27:59.706Z,5.35
2018-01-21T10:29:02.161Z,6.18
2018-01-21T10:30:04.629Z,5.95
2018-01-21T10:31:07.106Z,6.10
2018-01-21T10:32:09.633Z,6.20
2018-01-21T10:33:12.103Z,6.05
2018-01-21T10:34:14.580Z,5.60
2018-01-21T10:35:17.112Z,4.95
2018-01-21T10:36:19.580Z,5.50
2018-01-21T10:37:22.085Z,5.20
2018-01-21T10:38:24.617Z,5.25
2018-01-21T10:39:27.111Z,4.60
2018-01-21T10:40:29.562Z,5.25
2018-01-21T10:41:32.032Z,4.70
2018-01-21T10:42:34.521Z,5.10
2018-01-21T10:43:37.000Z,4.93
2018-01-21T10:44:39.466Z,4.90
2018-01-21T10:45:41.927Z,4.28
2018-01-21T10:46:44.398Z,5.65
2018-01-21T10:47:48.264Z,4.53
2018-01-21T10:48:50.744Z,4.90
2018-01-21T10:49:53.241Z,4.55
2018-01-21T10:50:55.698Z,4.70
2018-01-21T10:51:58.150Z,4.00
2018-01-21T10:53:00.669Z,3.97
2018-01-21T10:54:03.152Z,4.10
2018-01-21T10:55:05.632Z,3.60
2018-01-21T10:56:08.085Z,4.30
2018-01-21T10:57:10.586Z,4.95
2018-01-21T10:58:13.218Z,4.65
2018-01-21T10:59:15.675Z,5.12
2018-01-21T11:00:18.147Z,4.62
2018-01-21T11:01:20.603Z,4.28
2018-01-21T11:02:23.104Z,4.15
2018-01-21T11:03:25.614Z,4.15
2018-01-21T11:04:28.228Z,4.45
2018-01-21T11:05:30.720Z,4.15
2018-01-21T11:06:33.186Z,4.50
2018-01-21T11:07:35.664Z,4.37
2018-01-21T11:08:38.180Z,3.62
2018-01-21T11:09:40.828Z,3.45
2018-01-21T11:10:43.372Z,4.05
2018-01-21T11:11:45.844Z,4.12
2018-01-21T11:12:48.312Z,4.65
2018-01-21T11:13:50.799Z,4.20
2018-01-21T11:14:53.245Z,5.28
2018-01-21T11:15:55.693Z,5.15
2018-01-21T11:16:58.150Z,4.85
2018-01-21T11:18:00.622Z,4.15
2018-01-21T11:19:03.116Z,5.90
2018-01-21T11:20:05.592Z,5.07
2018-01-21T11:21:08.058Z,5.25
2018-01-21T11:22:10.532Z,5.22
2018-01-21T11:23:13.016Z,5.50
2018-01-21T11:24:15.500Z,5.07
2018-01-21T11:25:17.975Z,4.62
2018-01-21T11:26:20.708Z,4.85
2018-01-21T11:27:23.176Z,4.90
2018-01-21T11:28:25.638Z,4.45
2018-01-21T11:29:28.130Z,4.80
2018-01-21T11:30:31.485Z,4.37
2018-01-21T11:31:33.953Z,4.35
2018-01-21T11:32:36.432Z,4.12
2018-01-21T11:33:39.852Z,5.00
2018-01-21T11:34:42.356Z,4.75
2018-01-21T11:35:44.817Z,4.15
2018-01-21T11:36:47.282Z,4.30
2018-01-21T11:37:49.761Z,4.85
2018-01-21T11:38:53.711Z,5.20
2018-01-21T11:39:59.389Z,4.90
2018-01-21T11:41:01.937Z,5.03
2018-01-21T11:42:04.475Z,4.57
2018-01-21T11:43:06.954Z,4.75
2018-01-21T11:44:09.742Z,5.05
2018-01-21T11:45:12.244Z,5.80
2018-01-21T11:46:14.716Z,4.62
2018-01-21T11:47:17.181Z,5.00
2018-01-21T11:48:19.648Z,5.37
2018-01-21T11:49:22.135Z,5.07
2018-01-21T11:50:24.602Z,4.62
2018-01-21T11:51:27.091Z,5.80
2018-01-21T11:52:29.550Z,5.28
2018-01-21T11:53:32.033Z,5.15
2018-01-21T11:54:34.504Z,5.32
2018-01-21T11:55:37.014Z,4.72
2018-01-21T11:56:39.510Z,4.93
2018-01-21T11:57:41.988Z,5.15
2018-01-21T11:58:44.452Z,5.20
2018-01-21T11:59:46.916Z,4.45
2018-01-21T12:00:49.404Z,5.43
2018-01-21T12:01:51.909Z,5.22
2018-01-21T12:02:54.405Z,5.72
2018-01-21T12:03:56.883Z,5.18
2018-01-21T12:04:59.385Z,4.72
2018-01-21T12:06:01.871Z,5.68
2018-01-21T12:07:04.371Z,6.50
2018-01-21T12:08:06.862Z,5.72
2018-01-21T12:09:09.439Z,4.43
2018-01-21T12:10:11.978Z,4.50
2018-01-21T12:11:14.515Z,4.95
2018-01-21T12:12:16.970Z,5.00
2018-01-21T12:13:19.453Z,4.80
2018-01-21T12:14:22.152Z,3.90
2018-01-21T12:15:24.626Z,3.92
2018-01-21T12:16:27.106Z,4.25
2018-01-21T12:17:29.596Z,4.60
2018-01-21T12:18:32.448Z,4.97
2018-01-21T12:19:35.565Z,4.22
2018-01-21T12:20:38.117Z,5.10
2018-01-21T12:21:40.620Z,4.40
2018-01-21T12:22:43.110Z,5.50
2018-01-21T12:23:45.774Z,5.28
2018-01-21T12:24:48.270Z,4.85
2018-01-21T12:25:50.753Z,5.18
2018-01-21T12:26:53.233Z,3.67
2018-01-21T12:27:55.694Z,4.72
2018-01-21T12:28:58.172Z,6.43
2018-01-21T12:30:00.646Z,5.30
2018-01-21T12:31:03.127Z,5.20
2018-01-21T12:32:05.614Z,4.30
2018-01-21T12:33:08.165Z,5.43
2018-01-21T12:34:10.730Z,5.07
2018-01-21T12:35:13.217Z,5.53
2018-01-21T12:36:15.696Z,5.15
2018-01-21T12:37:18.201Z,5.50
2018-01-21T12:38:20.793Z,5.05
2018-01-21T12:39:23.261Z,4.80
2018-01-21T12:40:25.907Z,4.43
2018-01-21T12:41:29.094Z,4.55
2018-01-21T12:42:31.631Z,4.37
2018-01-21T12:43:39.047Z,4.68
2018-01-21T12:44:42.198Z,5.43
2018-01-21T12:45:44.664Z,4.10
2018-01-21T12:46:47.128Z,3.90
2018-01-21T12:47:49.625Z,3.67
2018-01-21T12:48:52.102Z,3.95
2018-01-21T12:49:54.655Z,4.80
2018-01-21T12:50:57.139Z,4.78
2018-01-21T12:51:59.779Z,4.60
2018-01-21T12:53:02.300Z,5.03
2018-01-21T12:54:06.042Z,5.32
2018-01-21T12:55:08.555Z,11.05
2018-01-21T12:56:11.044Z,7.20
2018-01-21T12:57:13.570Z,6.32
2018-01-21T12:58:16.142Z,7.10
2018-01-21T12:59:18.622Z,6.70
2018-01-21T13:00:21.099Z,6.80
2018-01-21T13:01:23.676Z,7.55
2018-01-21T13:02:26.798Z,6.65
2018-01-21T13:03:29.294Z,6.25
2018-01-21T13:04:32.043Z,6.22
2018-01-21T13:05:34.522Z,6.87
2018-01-21T13:06:38.283Z,7.15
2018-01-21T13:07:40.787Z,5.87
2018-01-21T13:08:44.280Z,6.43
2018-01-21T13:09:46.751Z,5.82
2018-01-21T13:10:49.868Z,6.65
2018-01-21T13:11:52.356Z,6.18
2018-01-21T13:12:54.820Z,7.18
2018-01-21T13:13:57.443Z,6.80
2018-01-21T13:15:00.500Z,6.78
2018-01-21T13:16:02.966Z,6.22
2018-01-21T13:17:06.253Z,6.93
2018-01-21T13:18:08.966Z,5.75
2018-01-21T13:19:12.172Z,6.47
2018-01-21T13:20:14.753Z,6.85
2018-01-21T13:21:17.286Z,6.30
2018-01-21T13:22:20.079Z,7.37
2018-01-21T13:23:22.989Z,6.40
2018-01-21T13:24:25.609Z,6.22
2018-01-21T13:25:28.108Z,6.70
2018-01-21T13:26:30.565Z,6.40
2018-01-21T13:27:33.062Z,6.30
2018-01-21T13:28:35.642Z,5.43
2018-01-21T13:29:38.126Z,5.80
2018-01-21T13:30:40.661Z,6.60
2018-01-21T13:31:43.243Z,6.07
2018-01-21T13:32:46.106Z,7.03
2018-01-21T13:33:48.588Z,7.35
2018-01-21T13:34:51.066Z,6.70